^^
MeteoGriva-Weather Station Historical Data
Daily Summary for August 17, 2020 Units:  English    Metric   Both
Daily Weekly Monthly Yearly Custom
  High: Low: Average:
Temperature: 47.7 °F 34.7 °F 39.9 °F
Dew Point: 43.2 °F 34.5 °F 38.3 °F
Humidity: 99% 80% 94%
Wind Speed: 2.1mph 0mph 0.2mph
Wind Gust: 10.1mph - -
Wind- - SSE
Pressure: 30.4 in 0 in -
Precipitation: 0 in    
Historical Graphs
 
 
Tabular Data for August 17, 2020
Time Temperature Dew Point Pressure Wind Wind Speed Wind Gust Humidity Rainfall Rate (Hourly) solar
00:04 38.1 °F 37.6 °F 30.3 in Calm     98% 0 in 0 W/m2
00:09 38.1 °F 37.6 °F 30.3 in Calm     98.2% 0 in 0 W/m2
00:14 37.6 °F 37.4 °F 30.3 in Calm     99% 0 in 0 W/m2
00:19 37.6 °F 37.4 °F 30.3 in Calm     99% 0 in 0 W/m2
00:24 37.8 °F 37.6 °F 30.3 in Calm     99% 0 in 0 W/m2
00:29 37.8 °F 37.6 °F 30.3 in Calm     99% 0 in 0 W/m2
00:34 37.8 °F 37.6 °F 30.3 in Calm     99% 0 in 0 W/m2
00:39 37.8 °F 37.6 °F 30.3 in Calm     99% 0 in 0 W/m2
00:44 37.8 °F 37.6 °F 30.3 in Calm     99% 0 in 0 W/m2
00:49 37.8 °F 37.6 °F 30.3 in Calm     99% 0 in 0 W/m2
00:54 38.1 °F 37.9 °F 30.3 in Calm     99% 0 in 0 W/m2
00:59 38.1 °F 37.9 °F 30.3 in Calm     99% 0 in 0 W/m2
01:04 38.1 °F 37.9 °F 30.3 in Calm     99% 0 in 0 W/m2
01:09 38.1 °F 37.9 °F 30.3 in Calm     99% 0 in 0 W/m2
01:14 37.9 °F 37.8 °F 30.3 in Calm     99% 0 in 0 W/m2
01:19 37.8 °F 37.6 °F 30.3 in Calm     99% 0 in 0 W/m2
01:24 37.8 °F 37.6 °F 30.3 in Calm     99% 0 in 0 W/m2
01:29 37.8 °F 37.6 °F 30.3 in Calm     99% 0 in 0 W/m2
01:34 37.8 °F 37.8 °F 30.3 in Calm     99% 0 in 0 W/m2
01:39 37.9 °F 37.8 °F 30.3 in Calm     99% 0 in 0 W/m2
01:44 37.9 °F 37.8 °F 30.3 in Calm     99% 0 in 0 W/m2
01:49 37.9 °F 37.8 °F 30.3 in Calm     99% 0 in 0 W/m2
01:54 37.4 °F 37.2 °F 30.3 in Calm     99% 0 in 0 W/m2
01:59 37.4 °F 37.2 °F 30.3 in Calm     99% 0 in 0 W/m2
02:04 37.4 °F 37 °F 30.3 in Calm     98.2% 0 in 0 W/m2
02:09 37.4 °F 36.9 °F 30.3 in Calm     98.1% 0 in 0 W/m2
02:14 37.4 °F 36.9 °F 30.3 in Calm     98% 0 in 0 W/m2
02:19 37.2 °F 37 °F 30.3 in Calm     99% 0 in 0 W/m2
02:24 37 °F 36.9 °F 30.3 in Calm     99% 0 in 0 W/m2
02:29 36.9 °F 36.7 °F 30.3 in Calm     99% 0 in 0 W/m2
02:34 36.1 °F 36 °F 30.3 in Calm     99% 0 in 0 W/m2
02:39 36 °F 35.8 °F 30.3 in Calm     99% 0 in 0 W/m2
02:44 36 °F 35.8 °F 30.3 in Calm     99% 0 in 0 W/m2
02:49 36 °F 35.8 °F 30.3 in Calm     99% 0 in 0 W/m2
02:54 36.3 °F 36.1 °F 30.3 in Calm     99% 0 in 0 W/m2
02:59 36.1 °F 36 °F 30.3 in Calm     99% 0 in 0 W/m2
03:04 36.1 °F 36 °F 30.3 in Calm     99% 0 in 0 W/m2
03:09 36.1 °F 36 °F 30.3 in Calm     99% 0 in 0 W/m2
03:14 35.8 °F 35.6 °F 30.3 in Calm     99% 0 in 0 W/m2
03:19 35.8 °F 35.6 °F 30.3 in Calm     99% 0 in 0 W/m2
03:24 35.8 °F 35.6 °F 30.3 in Calm     99% 0 in 0 W/m2
03:29 35.8 °F 35.6 °F 30.3 in Calm   2.5 mph 99% 0 in 0 W/m2
03:34 36.3 °F 36 °F 30.3 in SW 0.2 mph 2.5 mph 99% 0 in 0 W/m2
03:39 36.3 °F 36.1 °F 30.3 in Calm     99% 0 in 0 W/m2
03:44 36.1 °F 36 °F 30.3 in Calm     99% 0 in 0 W/m2
03:49 36.1 °F 36 °F 30.3 in SSW 0.2 mph 2.5 mph 99% 0 in 0 W/m2
03:54 36.3 °F 36.1 °F 30.3 in South 1.2 mph 4.9 mph 99% 0 in 0 W/m2
03:59 36.3 °F 36.1 °F 30.3 in South 0.7 mph 4.9 mph 99% 0 in 0 W/m2
04:04 36.3 °F 36.1 °F 30.3 in SSW 1.2 mph 4.9 mph 99% 0 in 0 W/m2
04:09 36.3 °F 36.1 °F 30.3 in SSW 0.2 mph 2.5 mph 99% 0 in 0 W/m2
04:14 36.1 °F 36 °F 30.3 in Calm     99% 0 in 0 W/m2
04:19 36 °F 35.8 °F 30.3 in Calm     99% 0 in 0 W/m2
04:24 36 °F 35.8 °F 30.3 in Calm     99% 0 in 0 W/m2
04:29 36 °F 35.8 °F 30.3 in Calm     99% 0 in 0 W/m2
04:34 35.8 °F 35.6 °F 30.3 in Calm     99% 0 in 0 W/m2
04:39 35.8 °F 35.6 °F 30.3 in Calm     99% 0 in 0 W/m2
04:44 35.8 °F 35.6 °F 30.3 in Calm     99% 0 in 0 W/m2
04:49 35.6 °F 35.4 °F 30.3 in Calm     99% 0 in 0 W/m2
04:54 35.4 °F 35.2 °F 30.3 in Calm     99% 0 in 0 W/m2
04:59 35.2 °F 35.1 °F 30.3 in Calm     99% 0 in 0 W/m2
05:04 35.2 °F 35.2 °F 30.3 in Calm     99% 0 in 0 W/m2
05:09 35.4 °F 35.2 °F 30.3 in Calm     99% 0 in 0 W/m2
05:14 35.2 °F 35.1 °F 30.3 in Calm     99% 0 in 0 W/m2
05:19 35.2 °F 35.1 °F 30.3 in Calm     99% 0 in 0 W/m2
05:24 35.2 °F 35.1 °F 30.3 in Calm     99% 0 in 0 W/m2
05:29 35.2 °F 35.1 °F 30.3 in Calm     99% 0 in 0 W/m2
05:34 34.9 °F 34.7 °F 30.3 in Calm     99% 0 in 0 W/m2
05:39 34.7 °F 34.5 °F 30.3 in Calm     99% 0 in 0 W/m2
05:44 34.7 °F 34.5 °F 30.3 in Calm     99% 0 in 0 W/m2
05:49 34.7 °F 34.5 °F 30.3 in Calm     99% 0 in 0 W/m2
05:54 35.4 °F 35.2 °F 30.3 in Calm     99% 0 in 0 W/m2
05:59 35.6 °F 35.4 °F 30.3 in Calm     99% 0 in 0 W/m2
06:04 35.6 °F 35.4 °F 30.3 in Calm     99% 0 in 0 W/m2
06:09 35.6 °F 35.4 °F 30.3 in Calm     99% 0 in 0 W/m2
06:14 36 °F 35.8 °F 30.3 in Calm     99% 0 in 0 W/m2
06:19 36 °F 36 °F 30.3 in Calm     99% 0 in 0 W/m2
06:24 36 °F 35.8 °F 30.3 in Calm     99% 0 in 0 W/m2
06:29 36 °F 35.8 °F 30.3 in Calm     99% 0 in 0 W/m2
06:34 36.1 °F 36 °F 30.3 in Calm     99% 0 in 0 W/m2
06:39 36.1 °F 36 °F 30.3 in Calm     99% 0 in 0 W/m2
06:44 36.1 °F 36 °F 30.3 in Calm     99% 0 in 0 W/m2
06:49 36.1 °F 36 °F 30.3 in Calm     99% 0 in 0 W/m2
06:54 36.1 °F 36 °F 30.3 in Calm     99% 0 in 0 W/m2
06:59 36.1 °F 36 °F 30.3 in Calm     99% 0 in 0 W/m2
07:04 36 °F 35.8 °F 30.3 in Calm     99% 0 in 0 W/m2
07:09 36 °F 35.8 °F 30.3 in Calm     99% 0 in 0 W/m2
07:14 36.1 °F 35.8 °F 30.3 in Calm     98.1% 0 in 0 W/m2
07:19 36.5 °F 36 °F 30.3 in Calm     97.7% 0 in 0 W/m2
07:24 36.3 °F 35.8 °F 30.3 in Calm     97.9% 0 in 0 W/m2
07:29 36.3 °F 35.2 °F 30.3 in Calm     95.7% 0 in 0 W/m2
07:34 36.5 °F 34.9 °F 30.3 in Calm     93.9% 0 in 0 W/m2
07:39 37 °F 35.2 °F 30.3 in Calm     93.1% 0 in 0 W/m2
07:44 37 °F 35.2 °F 30.3 in Calm     93.6% 0 in 0 W/m2
07:49 37 °F 35.6 °F 30.3 in Calm     94.7% 0 in 0 W/m2
07:54 36.7 °F 35.8 °F 30.3 in Calm     96.2% 0 in 0 W/m2
07:59 36.1 °F 35.6 °F 30.3 in Calm     98% 0 in 3 W/m2
08:04 36.1 °F 35.6 °F 30.3 in Calm     97.7% 0 in 6 W/m2
08:09 36.1 °F 35.6 °F 30.3 in Calm     97.2% 0 in 10 W/m2
08:14 36.7 °F 35.6 °F 30.3 in Calm   2.5 mph 96% 0 in 16 W/m2
08:19 37.4 °F 35.8 °F 30.3 in SSW 0.2 mph 2.5 mph 93.8% 0 in 21 W/m2
08:24 37.4 °F 35.6 °F 30.3 in Calm   2.5 mph 93.1% 0 in 26 W/m2
08:29 37.6 °F 36 °F 30.3 in Calm     94% 0 in 31 W/m2
08:34 38.3 °F 36.5 °F 30.3 in Calm     93.1% 0 in 35 W/m2
08:39 39.6 °F 37.8 °F 30.3 in Calm     92.8% 0 in 40 W/m2
08:44 39.2 °F 38.1 °F 30.3 in Calm     95.4% 0 in 44 W/m2
08:49 39 °F 37.6 °F 30.3 in Calm     94.3% 0 in 48 W/m2
08:54 39.4 °F 37 °F 30.3 in Calm     91.4% 0 in 52 W/m2
08:59 40.1 °F 37.4 °F 30.3 in Calm     90.1% 0 in 56 W/m2
09:04 40.3 °F 37 °F 30.3 in Calm     88.2% 0 in 59 W/m2
09:09 40.6 °F 37.2 °F 30.3 in Calm     87.4% 0 in 62 W/m2
09:14 41 °F 37.9 °F 30.3 in Calm     88.7% 0 in 65 W/m2
09:19 41.9 °F 38.8 °F 30.3 in Calm     88.1% 0 in 68 W/m2
09:24 41.9 °F 38.8 °F 30.4 in Calm     88.9% 0 in 70 W/m2
09:29 41.9 °F 38.7 °F 30.4 in Calm     88.4% 0 in 72 W/m2
09:34 42.1 °F 38.7 °F 30.4 in Calm     87.4% 0 in 75 W/m2
09:39 42.4 °F 39 °F 30.4 in Calm     87.8% 0 in 76 W/m2
09:44 42.4 °F 39 °F 0 in Calm     87.7% 0 in 79 W/m2
09:49 42.4 °F 38.8 °F 0 in Calm     87.1% 0 in 81 W/m2
09:54 42.4 °F 38.8 °F 0 in SSW 0.4 mph 4.9 mph 87% 0 in 81 W/m2
09:59 42.8 °F 39.2 °F 0 in South 0.4 mph 4.9 mph 86.9% 0 in 82 W/m2
10:04 42.8 °F 39.6 °F 30.4 in South 0.3 mph 4.9 mph 88% 0 in 83 W/m2
10:09 42.8 °F 39.4 °F 30.4 in SE 0.3 mph 2.5 mph 87.3% 0 in 83 W/m2
10:14 42.8 °F 39.2 °F 30.4 in SSE 0.2 mph 2.5 mph 87% 0 in 84 W/m2
10:19 42.6 °F 39 °F 30.4 in South 0.2 mph 4.9 mph 87.1% 0 in 84 W/m2
10:24 42.6 °F 38.7 °F 30.4 in Calm   2.5 mph 86% 0 in 85 W/m2
10:29 42.8 °F 38.8 °F 30.4 in Calm   2.5 mph 86.2% 0 in 85 W/m2
10:34 43.3 °F 39 °F 30.4 in Calm     84.9% 0 in 86 W/m2
10:39 44.8 °F 40.5 °F 30.4 in Calm     84.1% 0 in 87 W/m2
10:44 44.8 °F 40.6 °F 30.4 in Calm     85% 0 in 87 W/m2
10:49 44.6 °F 40.6 °F 30.4 in Calm   2.5 mph 85.9% 0 in 90 W/m2
10:54 44.6 °F 40.3 °F 30.4 in SSE 0.9 mph 4.9 mph 84.7% 0 in 90 W/m2
10:59 44.2 °F 40.1 °F 30.4 in SSE 0.4 mph 4.9 mph 85% 0 in 92 W/m2
11:04 44.2 °F 40.1 °F 30.4 in SE 0.4 mph 4.9 mph 84.6% 0 in 94 W/m2
11:09 44.4 °F 40.1 °F 30.4 in SE 0.2 mph 2.5 mph 84.3% 0 in 96 W/m2
11:14 44.6 °F 40.3 °F 30.4 in South 1.5 mph 4.9 mph 84.2% 0 in 99 W/m2
11:19 45 °F 40.5 °F 30.4 in Calm   4.9 mph 84.3% 0 in 101 W/m2
11:24 45.1 °F 40.3 °F 30.4 in Calm     82.9% 0 in 105 W/m2
11:29 45.3 °F 40.5 °F 30.4 in Calm   2.5 mph 83.1% 0 in 107 W/m2
11:34 45.5 °F 40.5 °F 30.3 in Calm   2.5 mph 82% 0 in 112 W/m2
11:39 46.8 °F 41.4 °F 30.4 in Calm   2.5 mph 81.8% 0 in 114 W/m2
11:44 46.6 °F 41.7 °F 30.3 in SSE 0.2 mph 4.9 mph 83.1% 0 in 119 W/m2
11:49 46.2 °F 41.9 °F 30.3 in SE 1.9 mph 7.6 mph 84.5% 0 in 120 W/m2
11:54 46 °F 41.5 °F 30.3 in ESE 1 mph 4.9 mph 84.8% 0 in 103 W/m2
11:59 45 °F 40.5 °F 30.3 in SE 1.2 mph 4.9 mph 84.4% 0 in 91 W/m2
12:04 44.8 °F 40.5 °F 30.3 in SSE 0.5 mph 4.9 mph 84.9% 0 in 91 W/m2
12:09 44.8 °F 40.5 °F 30.3 in ESE 0.2 mph 4.9 mph 84.9% 0 in 90 W/m2
12:14 44.8 °F 40.6 °F 30.3 in SE 1.7 mph 7.6 mph 85.7% 0 in 91 W/m2
12:19 45 °F 40.6 °F 30.3 in SSE 0.6 mph 4.9 mph 84.8% 0 in 111 W/m2
12:24 45 °F 40.5 °F 30.3 in South 0.2 mph 4.9 mph 83.9% 0 in 151 W/m2
12:29 45.1 °F 40.5 °F 30.3 in SSE 1.2 mph 4.9 mph 83.8% 0 in 167 W/m2
12:34 45.3 °F 40.8 °F 30.3 in SSE 1 mph 4.9 mph 84% 0 in 174 W/m2
12:39 46.4 °F 41.5 °F 30.3 in SE 1.5 mph 7.6 mph 83.1% 0 in 182 W/m2
12:44 46.6 °F 41.9 °F 30.3 in SSE 0.7 mph 7.6 mph 83.4% 0 in 194 W/m2
12:49 46.4 °F 41.7 °F 30.3 in SE 1.6 mph 10.1 mph 83.6% 0 in 202 W/m2
12:54 46.4 °F 41.7 °F 30.3 in South 0.7 mph 4.9 mph 83.7% 0 in 210 W/m2
12:59 46.8 °F 41.9 °F 30.3 in South 0.7 mph 4.9 mph 82.8% 0 in 223 W/m2
13:04 46.9 °F 41.9 °F 30.3 in South 0.9 mph 4.9 mph 82.7% 0 in 228 W/m2
13:09 46.8 °F 41.9 °F 30.3 in SSE 0.4 mph 4.9 mph 82.9% 0 in 237 W/m2
13:14 46.8 °F 42.1 °F 30.3 in SSE 2.1 mph 7.6 mph 83.3% 0 in 246 W/m2
13:19 46.2 °F 41.7 °F 30.3 in SSE 1.2 mph 7.6 mph 84% 0 in 251 W/m2
13:24 46 °F 41.5 °F 30.3 in SSE 1.8 mph 7.6 mph 84.3% 0 in 261 W/m2
13:29 46 °F 41.7 °F 30.3 in SE 0.6 mph 7.6 mph 85% 0 in 259 W/m2
13:34 46 °F 41.7 °F 30.3 in SSE 1.5 mph 4.9 mph 84.8% 0 in 267 W/m2
13:39 46.4 °F 41.9 °F 30.3 in SE 2.1 mph 7.6 mph 84.3% 0 in 271 W/m2
13:44 46.6 °F 41.9 °F 30.3 in South 0.7 mph 4.9 mph 83.3% 0 in 268 W/m2
13:49 46.6 °F 41.7 °F 30.3 in SSE 1.1 mph 4.9 mph 83% 0 in 272 W/m2
13:54 46.6 °F 41.9 °F 30.3 in South 0.8 mph 7.6 mph 83.7% 0 in 273 W/m2
13:59 47.5 °F 42.4 °F 30.3 in South 0.8 mph 4.9 mph 82.5% 0 in 273 W/m2
14:04 47.7 °F 42.4 °F 30.3 in SSE 0.9 mph 4.9 mph 82.2% 0 in 274 W/m2
14:09 47.7 °F 42.4 °F 30.3 in SE 0.3 mph 4.9 mph 82.1% 0 in 274 W/m2
14:14 47.5 °F 42.6 °F 30.3 in SE 1.4 mph 7.6 mph 83.3% 0 in 271 W/m2
14:19 47.1 °F 42.4 °F 30.3 in SSE 0.9 mph 4.9 mph 83.3% 0 in 268 W/m2
14:24 46.9 °F 42.3 °F 30.3 in SSE 1 mph 7.6 mph 83.3% 0 in 272 W/m2
14:29 46.9 °F 42.3 °F 30.3 in SSE 0.8 mph 4.9 mph 83.3% 0 in 270 W/m2
14:34 46.9 °F 41.9 °F 30.3 in East 0.1 mph 2.5 mph 82.3% 0 in 268 W/m2
14:39 46.9 °F 42.1 °F 30.3 in SSE 0.2 mph 2.5 mph 82.7% 0 in 267 W/m2
14:44 47.1 °F 41.9 °F 30.3 in Calm   2.5 mph 82.2% 0 in 262 W/m2
14:49 47.3 °F 41.7 °F 30.3 in Calm   2.5 mph 81.1% 0 in 259 W/m2
14:54 47.5 °F 41.7 °F 30.3 in Calm   4.9 mph 80.9% 0 in 255 W/m2
14:59 47.1 °F 41.7 °F 30.3 in Calm   2.5 mph 81.4% 0 in 230 W/m2
15:04 46.9 °F 41.7 °F 30.3 in ESE 0.8 mph 7.6 mph 82.1% 0 in 232 W/m2
15:09 46.8 °F 42.3 °F 30.3 in ESE 0.6 mph 7.6 mph 84.8% 0 in 238 W/m2
15:14 46.6 °F 42.1 °F 30.3 in South 0.2 mph 4.9 mph 83.8% 0 in 231 W/m2
15:19 47.3 °F 42.1 °F 30.3 in Calm     82% 0 in 231 W/m2
15:24 47.7 °F 42.6 °F 30.3 in SSE 0.1 mph 4.9 mph 82.6% 0 in 222 W/m2
15:29 47.7 °F 42.3 °F 30.3 in SSE 0.1 mph 2.5 mph 81.6% 0 in 218 W/m2
15:34 47.7 °F 42.3 °F 30.3 in Calm     81.7% 0 in 211 W/m2
15:39 47.3 °F 42.4 °F 30.3 in Calm     82.7% 0 in 204 W/m2
15:44 47.3 °F 41.9 °F 30.3 in Calm     81.4% 0 in 196 W/m2
15:49 47.5 °F 41.7 °F 30.3 in Calm     80.6% 0 in 186 W/m2
15:54 47.7 °F 41.5 °F 30.3 in Calm     80% 0 in 179 W/m2
15:59 47.7 °F 42.1 °F 30.3 in Calm     81% 0 in 160 W/m2
16:04 47.7 °F 42.6 °F 30.3 in Calm     83% 0 in 104 W/m2
16:09 47.3 °F 43 °F 30.3 in Calm   2.5 mph 85.2% 0 in 55 W/m2
16:14 46.8 °F 43.2 °F 30.3 in Calm   2.5 mph 86.7% 0 in 51 W/m2
16:19 45.1 °F 41.7 °F 30.3 in Calm     87.8% 0 in 47 W/m2
16:24 43.9 °F 40.8 °F 30.3 in Calm     88.6% 0 in 43 W/m2
16:29 43.9 °F 40.8 °F 30.3 in Calm     89% 0 in 39 W/m2
16:34 43.7 °F 41 °F 30.3 in Calm     90% 0 in 36 W/m2
16:39 43.2 °F 40.5 °F 30.3 in Calm     90.8% 0 in 32 W/m2
16:44 42.6 °F 40.1 °F 30.3 in Calm     91% 0 in 29 W/m2
16:49 42.6 °F 40.5 °F 30.3 in Calm     91.8% 0 in 26 W/m2
16:54 42.4 °F 40.3 °F 30.3 in Calm     92% 0 in 23 W/m2
16:59 42.1 °F 40.1 °F 30.3 in Calm     92.3% 0 in 20 W/m2
17:04 41.4 °F 39.6 °F 30.3 in Calm     93% 0 in 17 W/m2
17:09 41.4 °F 39.7 °F 30.3 in Calm     94% 0 in 13 W/m2
17:14 41.4 °F 39.9 °F 30.3 in Calm     94.8% 0 in 10 W/m2
17:19 41 °F 39.7 °F 30.3 in Calm     95% 0 in 7 W/m2
17:24 40.6 °F 39.4 °F 30.3 in Calm     95% 0 in 4 W/m2
17:29 40.6 °F 39.2 °F 30.3 in Calm     94.4% 0 in 2 W/m2
17:34 40.6 °F 39.2 °F 30.3 in Calm     94.6% 0 in 0 W/m2
17:39 40.5 °F 39.4 °F 30.3 in Calm     95.7% 0 in 0 W/m2
17:44 39.9 °F 38.8 °F 30.3 in Calm     96% 0 in 0 W/m2
17:49 39.9 °F 39 °F 30.3 in Calm     96.3% 0 in 0 W/m2
17:54 39.9 °F 39.2 °F 30.3 in Calm     97% 0 in 0 W/m2
17:59 39.6 °F 38.8 °F 30.3 in Calm     97% 0 in 0 W/m2
18:04 39.4 °F 38.7 °F 30.3 in Calm     97% 0 in 0 W/m2
18:09 39.4 °F 38.7 °F 30.3 in Calm     97.2% 0 in 0 W/m2
18:14 39.4 °F 38.7 °F 30.3 in Calm     97.2% 0 in 0 W/m2
18:19 39.4 °F 38.7 °F 30.3 in Calm     97% 0 in 0 W/m2
18:24 39.2 °F 38.7 °F 30.3 in Calm     97.9% 0 in 0 W/m2
18:29 39.2 °F 38.7 °F 30.3 in Calm     97.6% 0 in 0 W/m2
18:34 39.2 °F 38.7 °F 30.3 in Calm     98% 0 in 0 W/m2
18:39 39.2 °F 38.7 °F 30.3 in Calm     98% 0 in 0 W/m2
18:44 39.4 °F 38.8 °F 30.3 in Calm     98% 0 in 0 W/m2
18:49 39.4 °F 38.8 °F 30.3 in Calm     97.9% 0 in 0 W/m2
18:54 39.4 °F 38.8 °F 30.3 in Calm     97.6% 0 in 0 W/m2
18:59 39.6 °F 38.8 °F 30.3 in Calm     97% 0 in 0 W/m2
19:04 39.7 °F 39 °F 30.3 in Calm     97% 0 in 0 W/m2
19:09 39.6 °F 38.8 °F 30.3 in Calm     97% 0 in 0 W/m2
19:14 39.6 °F 38.8 °F 30.3 in Calm     97% 0 in 0 W/m2
19:19 39.7 °F 38.8 °F 30.3 in Calm     97% 0 in 0 W/m2
19:24 39.7 °F 39 °F 30.3 in Calm     97% 0 in 0 W/m2
19:29 39.7 °F 39.4 °F 30.3 in Calm     98.3% 0 in 0 W/m2
19:34 39.6 °F 39.4 °F 30.3 in Calm     99% 0 in 0 W/m2
19:39 39.4 °F 39.2 °F 30.3 in Calm     99% 0 in 0 W/m2
19:44 39.2 °F 39 °F 30.3 in Calm     99% 0 in 0 W/m2
19:49 39.2 °F 39 °F 30.3 in Calm     98.9% 0 in 0 W/m2
19:54 39.2 °F 39 °F 30.3 in Calm     99% 0 in 0 W/m2
19:59 39.2 °F 39 °F 30.3 in Calm     99% 0 in 0 W/m2
20:04 39.2 °F 39 °F 30.3 in Calm     99% 0 in 0 W/m2
20:09 39.2 °F 38.8 °F 30.3 in Calm     98.2% 0 in 0 W/m2
20:14 39.2 °F 38.8 °F 30.3 in Calm     98.3% 0 in 0 W/m2
20:19 39.2 °F 39 °F 30.4 in Calm     99% 0 in 0 W/m2
20:24 39.6 °F 39 °F 30.4 in Calm     98.3% 0 in 0 W/m2
20:29 39.4 °F 39.2 °F 30.4 in Calm     99% 0 in 0 W/m2
20:34 39.4 °F 38.8 °F 30.4 in Calm     98.1% 0 in 0 W/m2
20:39 39.2 °F 39 °F 30.4 in Calm     99% 0 in 0 W/m2
20:44 38.8 °F 38.7 °F 30.4 in Calm     99% 0 in 0 W/m2
20:49 38.8 °F 38.7 °F 30.4 in Calm     99% 0 in 0 W/m2
20:54 38.7 °F 38.5 °F 30.4 in Calm     99% 0 in 0 W/m2
20:59 38.5 °F 38.3 °F 30.4 in North 0.1 mph 4.9 mph 99% 0 in 0 W/m2
21:04 37.2 °F 37 °F 30.4 in Calm   2.5 mph 99% 0 in 0 W/m2
21:09 37.2 °F 37 °F 30.4 in Calm     99% 0 in 0 W/m2
21:14 37 °F 36.9 °F 30.4 in Calm     99% 0 in 0 W/m2
21:19 37 °F 36.9 °F 30.4 in Calm     99% 0 in 0 W/m2
21:24 36.3 °F 36.1 °F 30.4 in Calm     99% 0 in 0 W/m2
21:29 36.3 °F 36.1 °F 30.4 in Calm     99% 0 in 0 W/m2
21:34 36.3 °F 36.1 °F 30.4 in Calm     99% 0 in 0 W/m2
21:39 36.3 °F 36.1 °F 30.4 in Calm     99% 0 in 0 W/m2
21:44 36.1 °F 36 °F 30.4 in Calm     99% 0 in 0 W/m2
21:49 36.1 °F 36 °F 30.4 in Calm     99% 0 in 0 W/m2
21:54 36.3 °F 36.1 °F 30.4 in Calm     99% 0 in 0 W/m2
21:59 36.3 °F 36.1 °F 30.4 in Calm     99% 0 in 0 W/m2
22:04 36.1 °F 36 °F 30.4 in Calm     99% 0 in 0 W/m2
22:09 36.1 °F 36 °F 30.4 in Calm     99% 0 in 0 W/m2
22:14 36.1 °F 36 °F 30.4 in Calm     99% 0 in 0 W/m2
22:19 36.1 °F 36 °F 30.4 in Calm     99% 0 in 0 W/m2
22:24 36.1 °F 36.1 °F 30.4 in Calm     99% 0 in 0 W/m2
22:29 36.1 °F 36 °F 30.4 in Calm     99% 0 in 0 W/m2
22:34 36.1 °F 36 °F 30.4 in Calm     99% 0 in 0 W/m2
22:39 36.1 °F 36 °F 30.4 in Calm     99% 0 in 0 W/m2
22:44 35.8 °F 35.6 °F 30.4 in Calm     99% 0 in 0 W/m2
22:49 35.8 °F 35.6 °F 30.4 in Calm     99% 0 in 0 W/m2
22:54 35.8 °F 35.6 °F 30.4 in Calm     99% 0 in 0 W/m2
22:59 36 °F 35.8 °F 30.4 in Calm     99% 0 in 0 W/m2
23:04 36 °F 35.8 °F 30.4 in Calm     99% 0 in 0 W/m2
23:09 36 °F 35.8 °F 30.4 in Calm     99% 0 in 0 W/m2
23:14 36 °F 35.8 °F 30.4 in Calm     99% 0 in 0 W/m2
23:19 36 °F 35.8 °F 30.4 in Calm     99% 0 in 0 W/m2
23:24 36.3 °F 36.1 °F 30.4 in Calm     99% 0 in 0 W/m2
23:29 36.3 °F 36.1 °F 30.4 in Calm     99% 0 in 0 W/m2
23:34 36.1 °F 36.1 °F 30.4 in Calm     99% 0 in 0 W/m2
23:39 36 °F 35.8 °F 30.4 in Calm     99% 0 in 0 W/m2
23:44 35.2 °F 35.1 °F 30.4 in Calm     99% 0 in 0 W/m2
23:49 35.1 °F 34.9 °F 30.4 in Calm     99% 0 in 0 W/m2
23:54 35.1 °F 34.9 °F 30.4 in Calm     99% 0 in 0 W/m2
23:59 35.1 °F 34.9 °F 30.4 in Calm     99% 0 in 0 W/m2
Juneau County Weather
Compliments of Weather Underground - 2 mb